sensor_id;sensor_type;location;lat;lon;timestamp;P1;durP1;ratioP1;P2;durP2;ratioP2
8100;SDS011;4093;53.470;9.832;2023-02-02T00:01:22;12.80;;;4.33;;
8100;SDS011;4093;53.470;9.832;2023-02-02T00:03:50;12.87;;;4.63;;
8100;SDS011;4093;53.470;9.832;2023-02-02T00:06:20;23.30;;;4.60;;
8100;SDS011;4093;53.470;9.832;2023-02-02T00:08:50;15.60;;;4.87;;
8100;SDS011;4093;53.470;9.832;2023-02-02T00:11:18;21.80;;;5.10;;
8100;SDS011;4093;53.470;9.832;2023-02-02T00:13:46;22.60;;;3.80;;
8100;SDS011;4093;53.470;9.832;2023-02-02T00:16:26;18.30;;;4.87;;
8100;SDS011;4093;53.470;9.832;2023-02-02T00:19:02;18.57;;;4.20;;
8100;SDS011;4093;53.470;9.832;2023-02-02T00:21:33;20.53;;;4.40;;
8100;SDS011;4093;53.470;9.832;2023-02-02T00:24:01;20.33;;;4.30;;
8100;SDS011;4093;53.470;9.832;2023-02-02T00:26:28;23.37;;;4.73;;
8100;SDS011;4093;53.470;9.832;2023-02-02T00:28:56;17.00;;;4.00;;
8100;SDS011;4093;53.470;9.832;2023-02-02T00:31:24;17.03;;;3.87;;
8100;SDS011;4093;53.470;9.832;2023-02-02T00:33:52;21.57;;;4.73;;
8100;SDS011;4093;53.470;9.832;2023-02-02T00:36:19;12.97;;;4.23;;
8100;SDS011;4093;53.470;9.832;2023-02-02T00:38:49;21.50;;;4.70;;
8100;SDS011;4093;53.470;9.832;2023-02-02T00:41:18;15.67;;;4.43;;
8100;SDS011;4093;53.470;9.832;2023-02-02T00:43:46;16.17;;;4.30;;
8100;SDS011;4093;53.470;9.832;2023-02-02T00:46:34;19.13;;;3.60;;
8100;SDS011;4093;53.470;9.832;2023-02-02T00:49:04;15.80;;;4.00;;
8100;SDS011;4093;53.470;9.832;2023-02-02T00:51:32;14.27;;;4.63;;
8100;SDS011;4093;53.470;9.832;2023-02-02T00:54:01;16.27;;;4.13;;
8100;SDS011;4093;53.470;9.832;2023-02-02T00:56:29;14.20;;;4.10;;
8100;SDS011;4093;53.470;9.832;2023-02-02T00:58:57;20.57;;;5.13;;
8100;SDS011;4093;53.470;9.832;2023-02-02T01:01:25;16.27;;;3.90;;
8100;SDS011;4093;53.470;9.832;2023-02-02T01:03:53;14.57;;;4.40;;
8100;SDS011;4093;53.470;9.832;2023-02-02T01:06:21;18.67;;;4.37;;
8100;SDS011;4093;53.470;9.832;2023-02-02T01:08:49;24.13;;;5.33;;
8100;SDS011;4093;53.470;9.832;2023-02-02T01:11:18;20.17;;;6.00;;
8100;SDS011;4093;53.470;9.832;2023-02-02T01:13:46;22.17;;;5.47;;
8100;SDS011;4093;53.470;9.832;2023-02-02T01:16:13;22.90;;;4.67;;
8100;SDS011;4093;53.470;9.832;2023-02-02T01:18:41;23.00;;;4.87;;
8100;SDS011;4093;53.470;9.832;2023-02-02T01:21:10;29.47;;;5.27;;
8100;SDS011;4093;53.470;9.832;2023-02-02T01:23:38;22.23;;;5.77;;
8100;SDS011;4093;53.470;9.832;2023-02-02T01:26:07;21.20;;;4.33;;
8100;SDS011;4093;53.470;9.832;2023-02-02T01:28:38;23.57;;;4.97;;
8100;SDS011;4093;53.470;9.832;2023-02-02T01:31:07;22.20;;;5.53;;
8100;SDS011;4093;53.470;9.832;2023-02-02T01:33:37;25.63;;;4.83;;
8100;SDS011;4093;53.470;9.832;2023-02-02T01:36:06;15.47;;;4.43;;
8100;SDS011;4093;53.470;9.832;2023-02-02T01:38:36;22.63;;;4.63;;
8100;SDS011;4093;53.470;9.832;2023-02-02T01:41:04;28.90;;;5.23;;
8100;SDS011;4093;53.470;9.832;2023-02-02T01:43:50;24.37;;;5.00;;
8100;SDS011;4093;53.470;9.832;2023-02-02T01:46:20;21.03;;;5.17;;
8100;SDS011;4093;53.470;9.832;2023-02-02T01:48:51;23.00;;;4.90;;
8100;SDS011;4093;53.470;9.832;2023-02-02T01:51:25;23.47;;;5.93;;
8100;SDS011;4093;53.470;9.832;2023-02-02T01:53:57;19.37;;;5.53;;
8100;SDS011;4093;53.470;9.832;2023-02-02T01:56:27;23.63;;;5.87;;
8100;SDS011;4093;53.470;9.832;2023-02-02T01:59:01;25.37;;;6.07;;
8100;SDS011;4093;53.470;9.832;2023-02-02T02:01:30;18.77;;;5.47;;
8100;SDS011;4093;53.470;9.832;2023-02-02T02:03:58;18.07;;;4.77;;
8100;SDS011;4093;53.470;9.832;2023-02-02T02:06:26;20.50;;;4.33;;
8100;SDS011;4093;53.470;9.832;2023-02-02T02:08:55;28.03;;;5.47;;
8100;SDS011;4093;53.470;9.832;2023-02-02T02:11:25;17.17;;;5.47;;
8100;SDS011;4093;53.470;9.832;2023-02-02T02:13:53;18.00;;;4.70;;
8100;SDS011;4093;53.470;9.832;2023-02-02T02:16:45;20.20;;;5.57;;
8100;SDS011;4093;53.470;9.832;2023-02-02T02:19:34;17.30;;;4.07;;
8100;SDS011;4093;53.470;9.832;2023-02-02T02:22:43;20.83;;;5.00;;
8100;SDS011;4093;53.470;9.832;2023-02-02T02:25:51;16.47;;;4.87;;
8100;SDS011;4093;53.470;9.832;2023-02-02T02:32:25;23.67;;;4.93;;
8100;SDS011;4093;53.470;9.832;2023-02-02T02:35:01;23.13;;;5.07;;
8100;SDS011;4093;53.470;9.832;2023-02-02T02:37:37;22.63;;;5.37;;
8100;SDS011;4093;53.470;9.832;2023-02-02T02:40:13;29.67;;;5.63;;
8100;SDS011;4093;53.470;9.832;2023-02-02T02:42:48;18.03;;;4.80;;
8100;SDS011;4093;53.470;9.832;2023-02-02T02:45:21;24.47;;;6.30;;
8100;SDS011;4093;53.470;9.832;2023-02-02T02:47:53;22.70;;;5.77;;
8100;SDS011;4093;53.470;9.832;2023-02-02T02:50:21;23.60;;;5.03;;
8100;SDS011;4093;53.470;9.832;2023-02-02T02:52:59;32.00;;;5.50;;
8100;SDS011;4093;53.470;9.832;2023-02-02T02:55:35;28.87;;;6.27;;
8100;SDS011;4093;53.470;9.832;2023-02-02T02:58:12;25.47;;;5.23;;
8100;SDS011;4093;53.470;9.832;2023-02-02T03:00:50;23.60;;;4.03;;
8100;SDS011;4093;53.470;9.832;2023-02-02T03:03:40;19.57;;;4.27;;
8100;SDS011;4093;53.470;9.832;2023-02-02T03:06:19;15.40;;;3.37;;
8100;SDS011;4093;53.470;9.832;2023-02-02T03:08:55;22.03;;;5.37;;
8100;SDS011;4093;53.470;9.832;2023-02-02T03:11:27;15.70;;;3.70;;
8100;SDS011;4093;53.470;9.832;2023-02-02T03:13:55;18.90;;;4.40;;
8100;SDS011;4093;53.470;9.832;2023-02-02T03:16:23;18.53;;;5.30;;
8100;SDS011;4093;53.470;9.832;2023-02-02T03:18:52;18.00;;;4.27;;
8100;SDS011;4093;53.470;9.832;2023-02-02T03:21:21;20.60;;;5.00;;
8100;SDS011;4093;53.470;9.832;2023-02-02T03:23:48;26.00;;;5.10;;
8100;SDS011;4093;53.470;9.832;2023-02-02T03:26:16;18.73;;;4.37;;
8100;SDS011;4093;53.470;9.832;2023-02-02T03:28:44;18.90;;;4.37;;
8100;SDS011;4093;53.470;9.832;2023-02-02T03:31:12;17.07;;;4.57;;
8100;SDS011;4093;53.470;9.832;2023-02-02T03:33:40;14.77;;;4.30;;
8100;SDS011;4093;53.470;9.832;2023-02-02T03:36:09;24.40;;;4.93;;
8100;SDS011;4093;53.470;9.832;2023-02-02T03:38:37;15.73;;;3.70;;
8100;SDS011;4093;53.470;9.832;2023-02-02T03:41:05;13.27;;;3.20;;
8100;SDS011;4093;53.470;9.832;2023-02-02T03:43:33;19.30;;;3.30;;
8100;SDS011;4093;53.470;9.832;2023-02-02T03:46:01;23.23;;;4.20;;
8100;SDS011;4093;53.470;9.832;2023-02-02T03:48:30;20.13;;;4.37;;
8100;SDS011;4093;53.470;9.832;2023-02-02T03:51:03;23.20;;;4.30;;
8100;SDS011;4093;53.470;9.832;2023-02-02T03:53:33;20.10;;;4.33;;
8100;SDS011;4093;53.470;9.832;2023-02-02T03:56:01;17.03;;;3.63;;
8100;SDS011;4093;53.470;9.832;2023-02-02T03:58:29;12.70;;;3.17;;
8100;SDS011;4093;53.470;9.832;2023-02-02T04:00:58;12.73;;;3.63;;
8100;SDS011;4093;53.470;9.832;2023-02-02T04:03:29;13.03;;;2.97;;
8100;SDS011;4093;53.470;9.832;2023-02-02T04:05:57;18.00;;;3.33;;
8100;SDS011;4093;53.470;9.832;2023-02-02T04:08:25;10.13;;;3.03;;
8100;SDS011;4093;53.470;9.832;2023-02-02T04:10:55;16.13;;;3.77;;
8100;SDS011;4093;53.470;9.832;2023-02-02T04:13:22;12.20;;;3.03;;
8100;SDS011;4093;53.470;9.832;2023-02-02T04:15:55;15.77;;;3.00;;
8100;SDS011;4093;53.470;9.832;2023-02-02T04:18:23;12.97;;;3.37;;
8100;SDS011;4093;53.470;9.832;2023-02-02T04:20:54;12.90;;;2.83;;
8100;SDS011;4093;53.470;9.832;2023-02-02T04:23:23;10.63;;;2.90;;
8100;SDS011;4093;53.470;9.832;2023-02-02T04:25:51;9.07;;;3.50;;
8100;SDS011;4093;53.470;9.832;2023-02-02T04:28:20;10.83;;;3.10;;
8100;SDS011;4093;53.470;9.832;2023-02-02T04:30:49;12.77;;;3.27;;
8100;SDS011;4093;53.470;9.832;2023-02-02T04:33:17;17.40;;;3.53;;
8100;SDS011;4093;53.470;9.832;2023-02-02T04:35:44;18.33;;;3.93;;
8100;SDS011;4093;53.470;9.832;2023-02-02T04:38:12;13.40;;;3.50;;
8100;SDS011;4093;53.470;9.832;2023-02-02T04:40:41;18.00;;;4.07;;
8100;SDS011;4093;53.470;9.832;2023-02-02T04:43:11;13.00;;;3.40;;
8100;SDS011;4093;53.470;9.832;2023-02-02T04:45:40;15.20;;;4.67;;
8100;SDS011;4093;53.470;9.832;2023-02-02T04:48:08;13.03;;;3.60;;
8100;SDS011;4093;53.470;9.832;2023-02-02T04:50:36;16.60;;;4.50;;
8100;SDS011;4093;53.470;9.832;2023-02-02T04:53:04;14.27;;;4.07;;
8100;SDS011;4093;53.470;9.832;2023-02-02T04:55:34;19.53;;;3.63;;
8100;SDS011;4093;53.470;9.832;2023-02-02T04:58:03;20.27;;;3.87;;
8100;SDS011;4093;53.470;9.832;2023-02-02T05:00:31;15.10;;;4.07;;
8100;SDS011;4093;53.470;9.832;2023-02-02T05:03:00;18.10;;;3.90;;
8100;SDS011;4093;53.470;9.832;2023-02-02T05:05:28;24.20;;;5.43;;
8100;SDS011;4093;53.470;9.832;2023-02-02T05:07:55;13.17;;;4.53;;
8100;SDS011;4093;53.470;9.832;2023-02-02T05:10:25;21.60;;;4.83;;
8100;SDS011;4093;53.470;9.832;2023-02-02T05:12:53;23.47;;;4.63;;
8100;SDS011;4093;53.470;9.832;2023-02-02T05:15:20;34.70;;;5.80;;
8100;SDS011;4093;53.470;9.832;2023-02-02T05:17:49;20.30;;;4.90;;
8100;SDS011;4093;53.470;9.832;2023-02-02T05:20:18;22.53;;;4.93;;
8100;SDS011;4093;53.470;9.832;2023-02-02T05:22:47;23.40;;;4.97;;
8100;SDS011;4093;53.470;9.832;2023-02-02T05:25:15;16.33;;;4.27;;
8100;SDS011;4093;53.470;9.832;2023-02-02T05:27:44;16.73;;;4.07;;
8100;SDS011;4093;53.470;9.832;2023-02-02T05:30:13;15.93;;;4.53;;
8100;SDS011;4093;53.470;9.832;2023-02-02T05:32:41;27.53;;;5.40;;
8100;SDS011;4093;53.470;9.832;2023-02-02T05:35:08;18.33;;;4.13;;
8100;SDS011;4093;53.470;9.832;2023-02-02T05:37:38;19.97;;;5.07;;
8100;SDS011;4093;53.470;9.832;2023-02-02T05:40:08;27.23;;;4.73;;
8100;SDS011;4093;53.470;9.832;2023-02-02T05:42:37;24.63;;;5.17;;
8100;SDS011;4093;53.470;9.832;2023-02-02T05:45:05;29.63;;;5.83;;
8100;SDS011;4093;53.470;9.832;2023-02-02T05:47:33;27.87;;;5.20;;
8100;SDS011;4093;53.470;9.832;2023-02-02T05:50:01;20.60;;;5.70;;
8100;SDS011;4093;53.470;9.832;2023-02-02T05:52:29;31.10;;;5.53;;
8100;SDS011;4093;53.470;9.832;2023-02-02T05:55:02;26.77;;;5.03;;
8100;SDS011;4093;53.470;9.832;2023-02-02T05:57:31;33.40;;;5.30;;
8100;SDS011;4093;53.470;9.832;2023-02-02T05:59:59;37.03;;;5.97;;
8100;SDS011;4093;53.470;9.832;2023-02-02T06:02:27;22.10;;;4.67;;
8100;SDS011;4093;53.470;9.832;2023-02-02T06:04:54;31.73;;;4.87;;
8100;SDS011;4093;53.470;9.832;2023-02-02T06:07:22;23.23;;;5.77;;
8100;SDS011;4093;53.470;9.832;2023-02-02T06:09:50;19.30;;;5.00;;
8100;SDS011;4093;53.470;9.832;2023-02-02T06:12:19;23.43;;;4.57;;
8100;SDS011;4093;53.470;9.832;2023-02-02T06:14:47;24.33;;;5.33;;
8100;SDS011;4093;53.470;9.832;2023-02-02T06:17:15;22.27;;;4.77;;
8100;SDS011;4093;53.470;9.832;2023-02-02T06:19:42;25.23;;;4.30;;
8100;SDS011;4093;53.470;9.832;2023-02-02T06:22:10;15.40;;;4.30;;
8100;SDS011;4093;53.470;9.832;2023-02-02T06:24:38;21.10;;;4.27;;
8100;SDS011;4093;53.470;9.832;2023-02-02T06:27:06;22.97;;;5.20;;
8100;SDS011;4093;53.470;9.832;2023-02-02T06:29:35;23.63;;;5.33;;
8100;SDS011;4093;53.470;9.832;2023-02-02T06:32:20;28.30;;;5.20;;
8100;SDS011;4093;53.470;9.832;2023-02-02T06:34:47;27.70;;;5.90;;
8100;SDS011;4093;53.470;9.832;2023-02-02T06:37:15;24.83;;;5.60;;
8100;SDS011;4093;53.470;9.832;2023-02-02T06:39:43;22.07;;;5.23;;
8100;SDS011;4093;53.470;9.832;2023-02-02T06:42:11;29.77;;;5.03;;
8100;SDS011;4093;53.470;9.832;2023-02-02T06:44:48;23.20;;;5.07;;
8100;SDS011;4093;53.470;9.832;2023-02-02T06:47:16;26.10;;;5.63;;
8100;SDS011;4093;53.470;9.832;2023-02-02T06:49:44;27.20;;;5.23;;
8100;SDS011;4093;53.470;9.832;2023-02-02T06:52:11;28.40;;;6.07;;
8100;SDS011;4093;53.470;9.832;2023-02-02T06:54:39;21.00;;;5.67;;
8100;SDS011;4093;53.470;9.832;2023-02-02T06:57:07;27.90;;;5.53;;
8100;SDS011;4093;53.470;9.832;2023-02-02T06:59:35;30.83;;;6.03;;
8100;SDS011;4093;53.470;9.832;2023-02-02T07:02:04;39.37;;;5.63;;
8100;SDS011;4093;53.470;9.832;2023-02-02T07:04:35;28.30;;;5.50;;
8100;SDS011;4093;53.470;9.832;2023-02-02T07:07:03;27.90;;;5.43;;
8100;SDS011;4093;53.470;9.832;2023-02-02T07:09:31;21.43;;;4.40;;
8100;SDS011;4093;53.470;9.832;2023-02-02T07:11:59;22.53;;;4.57;;
8100;SDS011;4093;53.470;9.832;2023-02-02T07:14:26;20.87;;;4.70;;
8100;SDS011;4093;53.470;9.832;2023-02-02T07:16:54;17.60;;;5.27;;
8100;SDS011;4093;53.470;9.832;2023-02-02T07:19:23;19.93;;;4.43;;
8100;SDS011;4093;53.470;9.832;2023-02-02T07:21:51;22.20;;;4.30;;
8100;SDS011;4093;53.470;9.832;2023-02-02T07:24:18;18.80;;;4.60;;
8100;SDS011;4093;53.470;9.832;2023-02-02T07:26:46;20.97;;;4.20;;
8100;SDS011;4093;53.470;9.832;2023-02-02T07:29:14;24.93;;;4.97;;
8100;SDS011;4093;53.470;9.832;2023-02-02T07:31:42;18.83;;;5.07;;
8100;SDS011;4093;53.470;9.832;2023-02-02T07:34:09;20.40;;;4.10;;
8100;SDS011;4093;53.470;9.832;2023-02-02T07:36:38;22.53;;;4.70;;
8100;SDS011;4093;53.470;9.832;2023-02-02T07:39:06;19.67;;;4.27;;
8100;SDS011;4093;53.470;9.832;2023-02-02T07:41:34;23.83;;;4.97;;
8100;SDS011;4093;53.470;9.832;2023-02-02T07:44:03;27.30;;;4.40;;
8100;SDS011;4093;53.470;9.832;2023-02-02T07:46:32;22.70;;;4.43;;
8100;SDS011;4093;53.470;9.832;2023-02-02T07:49:01;23.30;;;4.87;;
8100;SDS011;4093;53.470;9.832;2023-02-02T07:51:29;24.33;;;5.20;;
8100;SDS011;4093;53.470;9.832;2023-02-02T07:53:58;23.50;;;5.10;;
8100;SDS011;4093;53.470;9.832;2023-02-02T07:56:26;17.47;;;4.60;;
8100;SDS011;4093;53.470;9.832;2023-02-02T07:58:54;19.17;;;4.43;;
8100;SDS011;4093;53.470;9.832;2023-02-02T08:01:23;21.90;;;4.63;;
8100;SDS011;4093;53.470;9.832;2023-02-02T08:03:51;16.47;;;4.23;;
8100;SDS011;4093;53.470;9.832;2023-02-02T08:06:22;19.03;;;4.70;;
8100;SDS011;4093;53.470;9.832;2023-02-02T08:08:51;20.83;;;4.67;;
8100;SDS011;4093;53.470;9.832;2023-02-02T08:11:21;12.93;;;4.60;;
8100;SDS011;4093;53.470;9.832;2023-02-02T08:13:49;23.50;;;4.33;;
8100;SDS011;4093;53.470;9.832;2023-02-02T08:16:18;21.70;;;4.77;;
8100;SDS011;4093;53.470;9.832;2023-02-02T08:18:47;24.20;;;4.80;;
8100;SDS011;4093;53.470;9.832;2023-02-02T08:21:15;19.10;;;4.73;;
8100;SDS011;4093;53.470;9.832;2023-02-02T08:23:44;22.70;;;4.70;;
8100;SDS011;4093;53.470;9.832;2023-02-02T08:26:13;19.77;;;5.10;;
8100;SDS011;4093;53.470;9.832;2023-02-02T08:28:44;18.03;;;4.27;;
8100;SDS011;4093;53.470;9.832;2023-02-02T08:31:14;17.80;;;4.67;;
8100;SDS011;4093;53.470;9.832;2023-02-02T08:33:44;21.03;;;4.43;;
8100;SDS011;4093;53.470;9.832;2023-02-02T08:36:12;10.60;;;3.63;;
8100;SDS011;4093;53.470;9.832;2023-02-02T08:38:41;14.33;;;4.20;;
8100;SDS011;4093;53.470;9.832;2023-02-02T08:41:09;16.80;;;4.43;;
8100;SDS011;4093;53.470;9.832;2023-02-02T08:43:39;15.73;;;4.00;;
8100;SDS011;4093;53.470;9.832;2023-02-02T08:46:09;10.70;;;3.87;;
8100;SDS011;4093;53.470;9.832;2023-02-02T08:48:40;15.70;;;4.60;;
8100;SDS011;4093;53.470;9.832;2023-02-02T08:51:09;11.60;;;3.93;;
8100;SDS011;4093;53.470;9.832;2023-02-02T08:53:38;14.47;;;4.33;;
8100;SDS011;4093;53.470;9.832;2023-02-02T08:56:06;12.80;;;3.97;;
8100;SDS011;4093;53.470;9.832;2023-02-02T08:58:37;18.07;;;3.60;;
8100;SDS011;4093;53.470;9.832;2023-02-02T09:01:05;15.27;;;3.93;;
8100;SDS011;4093;53.470;9.832;2023-02-02T09:03:36;15.30;;;3.97;;
8100;SDS011;4093;53.470;9.832;2023-02-02T09:06:06;18.77;;;4.77;;
8100;SDS011;4093;53.470;9.832;2023-02-02T09:08:34;13.27;;;3.90;;
8100;SDS011;4093;53.470;9.832;2023-02-02T09:11:03;14.33;;;3.87;;
8100;SDS011;4093;53.470;9.832;2023-02-02T09:13:32;14.40;;;3.77;;
8100;SDS011;4093;53.470;9.832;2023-02-02T09:16:01;16.23;;;4.20;;
8100;SDS011;4093;53.470;9.832;2023-02-02T09:18:29;21.07;;;4.13;;
8100;SDS011;4093;53.470;9.832;2023-02-02T09:20:59;19.33;;;3.60;;
8100;SDS011;4093;53.470;9.832;2023-02-02T09:23:28;21.40;;;4.73;;
8100;SDS011;4093;53.470;9.832;2023-02-02T09:25:56;15.73;;;4.00;;
8100;SDS011;4093;53.470;9.832;2023-02-02T09:28:34;14.83;;;3.80;;
8100;SDS011;4093;53.470;9.832;2023-02-02T09:31:04;25.27;;;4.60;;
8100;SDS011;4093;53.470;9.832;2023-02-02T09:33:33;14.13;;;3.83;;
8100;SDS011;4093;53.470;9.832;2023-02-02T09:36:07;13.90;;;3.80;;
8100;SDS011;4093;53.470;9.832;2023-02-02T09:38:36;17.57;;;4.23;;
8100;SDS011;4093;53.470;9.832;2023-02-02T09:41:19;18.63;;;3.83;;
8100;SDS011;4093;53.470;9.832;2023-02-02T09:44:11;16.07;;;4.37;;
8100;SDS011;4093;53.470;9.832;2023-02-02T09:46:50;16.07;;;3.83;;
8100;SDS011;4093;53.470;9.832;2023-02-02T09:49:31;14.57;;;3.67;;
8100;SDS011;4093;53.470;9.832;2023-02-02T09:52:07;19.10;;;3.20;;
8100;SDS011;4093;53.470;9.832;2023-02-02T09:54:39;13.93;;;3.50;;
8100;SDS011;4093;53.470;9.832;2023-02-02T09:57:11;14.70;;;4.00;;
8100;SDS011;4093;53.470;9.832;2023-02-02T09:59:43;16.70;;;3.90;;
8100;SDS011;4093;53.470;9.832;2023-02-02T10:02:15;16.30;;;3.60;;
8100;SDS011;4093;53.470;9.832;2023-02-02T10:04:45;13.10;;;3.30;;
8100;SDS011;4093;53.470;9.832;2023-02-02T10:07:18;17.27;;;3.60;;
8100;SDS011;4093;53.470;9.832;2023-02-02T10:09:49;12.63;;;3.10;;
8100;SDS011;4093;53.470;9.832;2023-02-02T10:12:27;13.50;;;3.50;;
8100;SDS011;4093;53.470;9.832;2023-02-02T10:15:02;21.90;;;3.93;;
8100;SDS011;4093;53.470;9.832;2023-02-02T10:17:39;16.50;;;3.60;;
8100;SDS011;4093;53.470;9.832;2023-02-02T10:20:14;13.23;;;3.43;;
8100;SDS011;4093;53.470;9.832;2023-02-02T10:22:49;15.53;;;3.77;;
8100;SDS011;4093;53.470;9.832;2023-02-02T10:25:17;14.23;;;3.60;;
8100;SDS011;4093;53.470;9.832;2023-02-02T10:27:51;11.33;;;3.43;;
8100;SDS011;4093;53.470;9.832;2023-02-02T10:30:32;21.17;;;4.07;;
8100;SDS011;4093;53.470;9.832;2023-02-02T10:33:09;15.70;;;3.67;;
8100;SDS011;4093;53.470;9.832;2023-02-02T10:35:48;10.00;;;3.03;;
8100;SDS011;4093;53.470;9.832;2023-02-02T10:38:25;13.23;;;3.43;;
8100;SDS011;4093;53.470;9.832;2023-02-02T10:41:05;10.07;;;3.20;;
8100;SDS011;4093;53.470;9.832;2023-02-02T10:43:52;17.20;;;3.90;;
8100;SDS011;4093;53.470;9.832;2023-02-02T10:46:30;17.63;;;3.93;;
8100;SDS011;4093;53.470;9.832;2023-02-02T10:49:11;14.67;;;3.23;;
8100;SDS011;4093;53.470;9.832;2023-02-02T10:51:44;16.83;;;4.37;;
8100;SDS011;4093;53.470;9.832;2023-02-02T10:54:28;9.63;;;2.50;;
8100;SDS011;4093;53.470;9.832;2023-02-02T10:57:23;10.30;;;2.83;;
8100;SDS011;4093;53.470;9.832;2023-02-02T11:00:01;9.50;;;2.40;;
8100;SDS011;4093;53.470;9.832;2023-02-02T11:02:34;14.50;;;3.17;;
8100;SDS011;4093;53.470;9.832;2023-02-02T11:05:02;12.77;;;3.17;;
8100;SDS011;4093;53.470;9.832;2023-02-02T11:07:48;13.30;;;3.20;;
8100;SDS011;4093;53.470;9.832;2023-02-02T11:10:18;9.70;;;2.97;;
8100;SDS011;4093;53.470;9.832;2023-02-02T11:12:45;14.67;;;3.10;;
8100;SDS011;4093;53.470;9.832;2023-02-02T11:15:22;14.93;;;2.80;;
8100;SDS011;4093;53.470;9.832;2023-02-02T11:17:52;13.17;;;3.60;;
8100;SDS011;4093;53.470;9.832;2023-02-02T11:20:21;5.77;;;2.33;;
8100;SDS011;4093;53.470;9.832;2023-02-02T11:23:00;10.07;;;2.63;;
8100;SDS011;4093;53.470;9.832;2023-02-02T11:25:32;7.53;;;2.60;;
8100;SDS011;4093;53.470;9.832;2023-02-02T11:28:08;7.87;;;3.00;;
8100;SDS011;4093;53.470;9.832;2023-02-02T11:30:45;9.47;;;2.50;;
8100;SDS011;4093;53.470;9.832;2023-02-02T11:33:25;5.43;;;2.30;;
8100;SDS011;4093;53.470;9.832;2023-02-02T11:35:54;8.67;;;2.40;;
8100;SDS011;4093;53.470;9.832;2023-02-02T11:38:24;16.43;;;3.13;;
8100;SDS011;4093;53.470;9.832;2023-02-02T11:40:55;14.50;;;3.10;;
8100;SDS011;4093;53.470;9.832;2023-02-02T11:43:28;11.40;;;3.07;;
8100;SDS011;4093;53.470;9.832;2023-02-02T11:45:58;7.77;;;2.13;;
8100;SDS011;4093;53.470;9.832;2023-02-02T11:48:29;10.20;;;2.63;;
8100;SDS011;4093;53.470;9.832;2023-02-02T11:51:01;9.23;;;2.70;;
8100;SDS011;4093;53.470;9.832;2023-02-02T11:53:31;7.13;;;2.50;;
8100;SDS011;4093;53.470;9.832;2023-02-02T11:56:03;14.93;;;3.20;;
8100;SDS011;4093;53.470;9.832;2023-02-02T11:58:41;9.67;;;2.33;;
8100;SDS011;4093;53.470;9.832;2023-02-02T12:01:21;6.53;;;2.03;;
8100;SDS011;4093;53.470;9.832;2023-02-02T12:03:51;6.70;;;2.60;;
8100;SDS011;4093;53.470;9.832;2023-02-02T12:06:20;5.93;;;2.20;;
8100;SDS011;4093;53.470;9.832;2023-02-02T12:08:50;6.80;;;2.13;;
8100;SDS011;4093;53.470;9.832;2023-02-02T12:11:33;8.43;;;2.60;;
8100;SDS011;4093;53.470;9.832;2023-02-02T12:14:12;8.90;;;2.80;;
8100;SDS011;4093;53.470;9.832;2023-02-02T12:16:56;10.27;;;3.00;;
8100;SDS011;4093;53.470;9.832;2023-02-02T12:19:40;9.33;;;2.70;;
8100;SDS011;4093;53.470;9.832;2023-02-02T12:22:22;7.13;;;2.20;;
8100;SDS011;4093;53.470;9.832;2023-02-02T12:25:07;5.37;;;2.20;;
8100;SDS011;4093;53.470;9.832;2023-02-02T12:27:56;7.37;;;2.30;;
8100;SDS011;4093;53.470;9.832;2023-02-02T12:30:32;5.37;;;2.27;;
8100;SDS011;4093;53.470;9.832;2023-02-02T12:33:12;13.97;;;2.50;;
8100;SDS011;4093;53.470;9.832;2023-02-02T12:35:57;9.63;;;2.60;;
8100;SDS011;4093;53.470;9.832;2023-02-02T12:38:40;9.13;;;3.40;;
8100;SDS011;4093;53.470;9.832;2023-02-02T12:41:25;10.27;;;2.13;;
8100;SDS011;4093;53.470;9.832;2023-02-02T12:44:06;4.40;;;2.30;;
8100;SDS011;4093;53.470;9.832;2023-02-02T12:46:45;7.03;;;2.43;;
8100;SDS011;4093;53.470;9.832;2023-02-02T12:49:26;5.23;;;2.40;;
8100;SDS011;4093;53.470;9.832;2023-02-02T12:52:11;10.93;;;2.43;;
8100;SDS011;4093;53.470;9.832;2023-02-02T12:54:52;8.93;;;2.57;;
8100;SDS011;4093;53.470;9.832;2023-02-02T12:57:33;6.30;;;2.30;;
8100;SDS011;4093;53.470;9.832;2023-02-02T13:00:14;11.60;;;2.07;;
8100;SDS011;4093;53.470;9.832;2023-02-02T13:05:58;6.63;;;2.50;;
8100;SDS011;4093;53.470;9.832;2023-02-02T13:08:40;9.63;;;2.13;;
8100;SDS011;4093;53.470;9.832;2023-02-02T13:11:14;8.53;;;2.30;;
8100;SDS011;4093;53.470;9.832;2023-02-02T13:13:56;10.17;;;2.77;;
8100;SDS011;4093;53.470;9.832;2023-02-02T13:16:27;7.63;;;2.00;;
8100;SDS011;4093;53.470;9.832;2023-02-02T13:18:58;8.30;;;2.17;;
8100;SDS011;4093;53.470;9.832;2023-02-02T13:21:28;11.73;;;2.20;;
8100;SDS011;4093;53.470;9.832;2023-02-02T13:23:59;11.10;;;2.47;;
8100;SDS011;4093;53.470;9.832;2023-02-02T13:26:33;6.57;;;2.00;;
8100;SDS011;4093;53.470;9.832;2023-02-02T13:29:05;10.17;;;2.23;;
8100;SDS011;4093;53.470;9.832;2023-02-02T13:31:41;5.67;;;2.10;;
8100;SDS011;4093;53.470;9.832;2023-02-02T13:34:15;5.27;;;1.80;;
8100;SDS011;4093;53.470;9.832;2023-02-02T13:36:48;10.10;;;2.30;;
8100;SDS011;4093;53.470;9.832;2023-02-02T13:39:21;6.70;;;2.63;;
8100;SDS011;4093;53.470;9.832;2023-02-02T13:41:55;5.30;;;2.10;;
8100;SDS011;4093;53.470;9.832;2023-02-02T13:44:23;3.77;;;1.67;;
8100;SDS011;4093;53.470;9.832;2023-02-02T13:46:58;12.13;;;2.47;;
8100;SDS011;4093;53.470;9.832;2023-02-02T13:49:31;8.67;;;2.90;;
8100;SDS011;4093;53.470;9.832;2023-02-02T13:52:08;5.73;;;2.93;;
8100;SDS011;4093;53.470;9.832;2023-02-02T14:01:03;5.20;;;2.00;;
8100;SDS011;4093;53.470;9.832;2023-02-02T14:03:39;4.90;;;2.17;;
8100;SDS011;4093;53.470;9.832;2023-02-02T14:06:10;6.90;;;2.20;;
8100;SDS011;4093;53.470;9.832;2023-02-02T14:08:42;4.30;;;2.00;;
8100;SDS011;4093;53.470;9.832;2023-02-02T14:11:24;5.20;;;2.80;;
8100;SDS011;4093;53.470;9.832;2023-02-02T14:13:56;6.50;;;2.43;;
8100;SDS011;4093;53.470;9.832;2023-02-02T14:16:45;9.60;;;2.53;;
8100;SDS011;4093;53.470;9.832;2023-02-02T14:22:16;4.57;;;1.80;;
8100;SDS011;4093;53.470;9.832;2023-02-02T14:24:47;6.57;;;1.80;;
8100;SDS011;4093;53.470;9.832;2023-02-02T14:30:25;4.60;;;2.00;;
8100;SDS011;4093;53.470;9.832;2023-02-02T14:35:57;8.13;;;2.10;;
8100;SDS011;4093;53.470;9.832;2023-02-02T14:38:40;4.57;;;1.97;;
8100;SDS011;4093;53.470;9.832;2023-02-02T14:45:05;8.13;;;2.43;;
8100;SDS011;4093;53.470;9.832;2023-02-02T14:47:46;10.80;;;2.40;;
8100;SDS011;4093;53.470;9.832;2023-02-02T14:50:17;7.67;;;2.20;;
8100;SDS011;4093;53.470;9.832;2023-02-02T14:52:56;6.23;;;2.43;;
8100;SDS011;4093;53.470;9.832;2023-02-02T14:55:28;3.10;;;2.13;;
8100;SDS011;4093;53.470;9.832;2023-02-02T14:57:57;7.80;;;2.10;;
8100;SDS011;4093;53.470;9.832;2023-02-02T15:00:28;4.90;;;1.90;;
8100;SDS011;4093;53.470;9.832;2023-02-02T15:06:04;6.27;;;2.33;;
8100;SDS011;4093;53.470;9.832;2023-02-02T15:08:41;5.27;;;2.07;;
8100;SDS011;4093;53.470;9.832;2023-02-02T15:11:09;5.07;;;1.97;;
8100;SDS011;4093;53.470;9.832;2023-02-02T15:16:44;5.73;;;2.03;;
8100;SDS011;4093;53.470;9.832;2023-02-02T15:19:16;5.77;;;1.90;;
8100;SDS011;4093;53.470;9.832;2023-02-02T15:21:50;10.63;;;2.13;;
8100;SDS011;4093;53.470;9.832;2023-02-02T15:24:23;7.53;;;2.23;;
8100;SDS011;4093;53.470;9.832;2023-02-02T15:26:54;5.87;;;2.10;;
8100;SDS011;4093;53.470;9.832;2023-02-02T15:29:36;6.60;;;2.17;;
8100;SDS011;4093;53.470;9.832;2023-02-02T15:32:09;6.33;;;2.10;;
8100;SDS011;4093;53.470;9.832;2023-02-02T15:34:42;5.63;;;2.23;;
8100;SDS011;4093;53.470;9.832;2023-02-02T15:37:13;8.43;;;2.67;;
8100;SDS011;4093;53.470;9.832;2023-02-02T15:39:49;4.93;;;2.30;;
8100;SDS011;4093;53.470;9.832;2023-02-02T15:42:19;9.80;;;2.57;;
8100;SDS011;4093;53.470;9.832;2023-02-02T15:45:24;5.87;;;2.40;;
8100;SDS011;4093;53.470;9.832;2023-02-02T15:47:58;5.60;;;2.07;;
8100;SDS011;4093;53.470;9.832;2023-02-02T15:50:29;5.07;;;2.50;;
8100;SDS011;4093;53.470;9.832;2023-02-02T15:52:57;6.90;;;3.00;;
8100;SDS011;4093;53.470;9.832;2023-02-02T15:55:29;8.60;;;4.07;;
8100;SDS011;4093;53.470;9.832;2023-02-02T15:57:58;13.60;;;4.27;;
8100;SDS011;4093;53.470;9.832;2023-02-02T16:00:27;16.07;;;7.53;;
8100;SDS011;4093;53.470;9.832;2023-02-02T16:02:59;20.23;;;8.67;;
8100;SDS011;4093;53.470;9.832;2023-02-02T16:05:41;18.47;;;10.70;;
8100;SDS011;4093;53.470;9.832;2023-02-02T16:08:14;22.80;;;9.43;;